Tiempo atmosférico en la estación meteorológica de León Aeropuerto, León (916 m.)



Fecha
DESCASC
Temp. máxima en grados centígrados (hora)
DESCASC
Temp. mínima en grados centígrados (hora)
DESCASC
Temp. media en grados centígrados
DESCASC
Racha de viento máxima en m/sg (hora)
DESCASC
Velocidad máxima media en intervalos de 10 minutos(hora)
DESCASC
Precipitaciones diarias en mm
DESCASC
Precipitaciones de 00:00 a 06:00 en mm
DESCASC
Precipitaciones de 06:00 a 12:00 en mm
DESCASC
Precipitaciones de 12:00 a 18:00 en mm
DESCASC
Precipitaciones de 18:00 a 24:00 en mm
DESCASC

Gráficas

Temp. máximas Temp. mínimas Temp. medias Precipitaciones Rachas de viento máximas Velocidades máximas media en intervalos de 10 minutos

Datos horarios

Fecha y hora oficial Temperatura (ºC) Velocidad del viento (km/h) Dirección del viento Racha (km/h) Dirección de racha Precipitación (mm) Presión (hPa) Tendencia (hPa) Humedad (%)
2019-12-05 23:00:00 2.2 5 Noroeste 13 Noroeste 0 917.8 0.6 91
2019-12-05 22:00:00 2.3 10 Noroeste 11 Noroeste 0 917.7 1 89
2019-12-05 21:00:00 4.3 3 Oeste 8 Norte 0 917.4 1.1 83
2019-12-05 20:00:00 5.3 4 Noroeste 11 Sur 0 917.2 1.7 81
2019-12-05 19:00:00 6.5 8 Sudeste 13 Sur 0 916.7 1.6 77
2019-12-05 18:00:00 8 8 Sur 15 Sudeste 0 916.3 1.2 73
2019-12-05 17:00:00 10.9 13 Sudeste 18 Sudeste 0 915.5 0.3 64
2019-12-05 16:00:00 12.4 11 Sudeste 15 Sur 0 915.1 -0.8 59
2019-12-05 15:00:00 12.1 7 Sudeste 21 Sur 0 915.1 -0.7 60
2019-12-05 14:00:00 11.5 14 Sudeste 21 Sudeste 0 915.2 -0.3 58
2019-12-05 13:00:00 11 5 Sur 13 Sudoeste 0 915.9 1.1 59
2019-12-05 12:00:00 9.5 9 Sur 18 Sudeste 0 915.8 1.8 64
2019-12-05 11:00:00 8.9 13 Norte 24 Norte 0 915.5 2.5 66
2019-12-05 10:00:00 6.5 17 Nordeste 26 Norte 0 914.8 2.2 74
2019-12-05 09:00:00 3.8 11 Norte 21 Norte 0 914 1.8 82
2019-12-05 08:00:00 2.5 12 Norte 18 Norte 0 913 0.8 85
2019-12-05 07:00:00 2 11 Norte 18 Norte 0 912.6 0.5 87
2019-12-05 06:00:00 0.5 10 Noroeste 13 Noroeste 0 912.2 0.9 89
2019-12-05 05:00:00 0.5 9 Noroeste 15 Noroeste 0 912.2 1.5 84
2019-12-05 04:00:00 0.4 9 Noroeste 11 Noroeste 0 912.1 1.8 81
2019-12-05 03:00:00 1 6 Oeste 15 Noroeste 0 911.3 1.5 78
2019-12-05 02:00:00 3 9 Norte 15 Norte 0 910.7 1 69
2019-12-05 01:00:00 2.9 5 Norte 17 Noroeste 0 910.3 0.8 71
2019-12-05 00:00:00 3.2 15 Noroeste 21 Noroeste 0 909.8 0.5 72
2019-12-04 23:00:00 2.3 12 Norte 18 Norte 0 909.7 0.9 76
2019-12-04 22:00:00 2.2 12 Norte 15 Norte 0 909.5 0.9 77
2019-12-04 21:00:00 2.9 8 Noroeste 18 Norte 0 909.3 1.5 75
2019-12-04 20:00:00 4.5 11 Norte 17 Norte 0 908.8 1.4 69
2019-12-04 19:00:00 5.9 11 Norte 21 Norte 0 908.6 1.4 65
2019-12-04 18:00:00 7.2 9 Norte 17 Norte 0 907.8 0.3 68
2019-12-04 17:00:00 9.7 3 Norte 13 Norte 0 907.4 -0.3 57
2019-12-04 16:00:00 10.1 9 Norte 13 Noroeste 0 907.2 -0.8 52
2019-12-04 15:00:00 9.3 7 Norte 15 Este 0 907.5 -0.9 54
2019-12-04 14:00:00 8.9 6 Este 18 Sudeste 0 907.7 -0.9 54
2019-12-04 13:00:00 8.4 11 Este 15 Sudeste 0 908 -0.3 60
2019-12-04 12:00:00 7 7 Norte 13 Nordeste 0 908.4 0.7 68
2019-12-04 11:00:00 4.8 8 Nordeste 9 Nordeste 0 908.6 0.9 77
2019-12-04 10:00:00 1.6 0 Calma 9 Noroeste 0 908.3 0.4 87
2019-12-04 09:00:00 -0.7 8 Norte 15 Norte 0 907.7 -0.3 90
2019-12-04 08:00:00 -1.1 10 Norte 15 Norte 0 907.7 -0.4 89
2019-12-04 07:00:00 -0.3 11 Norte 15 Norte 0 907.9 -0.9 87
2019-12-04 06:00:00 0.5 10 Norte 15 Norte 0 908 -1.1 86
2019-12-04 05:00:00 0.5 11 Norte 15 Norte 0 908.1 -1.6 88
2019-12-04 04:00:00 -0.7 12 Norte 15 Norte 0 908.8 -1.5 90
2019-12-04 03:00:00 -1.6 10 Norte 15 Norte 0 909.1 -1.2 88
2019-12-04 02:00:00 -1.8 9 Norte 15 Norte 0 909.7 -0.5 92
2019-12-04 01:00:00 -3 11 Norte 15 Norte 0 910.3 0 92
2019-12-04 00:00:00 -2.9 6 Norte 9 Norte 0 910.3 -0.1 90
2019-12-03 23:00:00 -2 4 Este 11 Norte 0 910.2 -0.2 87
2019-12-03 22:00:00 -1.2 8 Norte 9 Norte 0 910.3 0.4 86
2019-12-03 21:00:00 -0.5 6 Noroeste 9 Noroeste 0 910.4 0.9 83
2019-12-03 20:00:00 2.3 5 Sudeste 8 Sudeste 0 910.4 0.9 75
2019-12-03 19:00:00 3.2 5 Sur 11 Sur 0 909.9 0.1 69
2019-12-03 18:00:00 5.1 5 Sur 8 Sur 0 909.5 -0.5 57
2019-12-03 17:00:00 7.3 4 Sur 15 Sudeste 0 909.5 -1.3 48
2019-12-03 16:00:00 7.2 9 Sudeste 17 Sudeste 0 909.8 -1.7 48
2019-12-03 15:00:00 7.3 10 Sur 15 Sur 0 910 -2.6 51
2019-12-03 14:00:00 7 7 Sur 13 Sur 0 910.8 -2.2 51
2019-12-03 13:00:00 5.9 3 Sur 11 Sur 0 911.5 -1.5 54
2019-12-03 12:00:00 4.6 5 Sur 11 Sudoeste 0 912.6 -0.4 59
2019-12-03 11:00:00 2.2 0 Calma 5 Sudoeste 0 913 -0.4 69
2019-12-03 10:00:00 0.2 0 Calma 13 Sudeste 0 913 -0.3 77
2019-12-03 09:00:00 -3 9 Oeste 13 Oeste 0 913 -0.5 85
2019-12-03 08:00:00 -2.9 5 Oeste 8 Oeste 0 913.4 -0.3 84
2019-12-03 07:00:00 -3.8 4 Noroeste 8 Noroeste 0 913.3 -0.6 85
2019-12-03 06:00:00 -3.5 0 Calma 5 Sur 0 913.5 -0.8 86
2019-12-03 05:00:00 -2.8 0 Calma -- -- 0 913.7 -1.1 82
2019-12-03 04:00:00 -2.8 6 Noroeste 9 Norte 0 913.9 -1.3 83
2019-12-03 03:00:00 -- 8 Oeste 11 Noroeste 0 914.3 -1 --
2019-12-03 02:00:00 -2.1 10 Noroeste 13 Oeste 0 914.8 -0.6 81
2019-12-03 01:00:00 -2.3 9 Oeste 13 Noroeste 0 915.2 -0.4 82
2019-12-03 00:00:00 -1 9 Noroeste 15 Norte 0 915.3 -- 77
2019-12-02 23:00:00 0.9 9 Nordeste 13 Nordeste 0 915.4 0.2 69
2019-12-02 22:00:00 0.4 6 Norte -- -- -- 915.6 0.9 74
2019-12-02 21:00:00 -- -- -- -- -- -- -- -- --
2019-12-02 20:00:00 1.9 12 Norte 15 Norte 0 915.2 1.2 74
2019-12-02 19:00:00 3.4 8 Norte 24 Norte 0 914.7 1.2 72
2019-12-02 18:00:00 5.3 15 Norte 28 Norte 0 914.3 1 67
2019-12-02 17:00:00 7.6 16 Norte 32 Norte 0 914 0.4 59
2019-12-02 16:00:00 8.7 18 Norte 35 Norte 0 913.5 -0.4 54
2019-12-02 15:00:00 8.5 21 Norte 37 Norte 0 913.3 -1.2 54
2019-12-02 14:00:00 8.9 17 Norte 39 Norte 0 913.6 -0.9 56
2019-12-02 13:00:00 8.8 21 Norte 37 Norte -- 913.9 0.1 57
2019-12-02 12:00:00 8.4 18 Norte 28 Nordeste 0 914.5 1.1 61
2019-12-02 11:00:00 7.1 10 Nordeste 17 Nordeste 0 914.5 1.6 67
2019-12-02 10:00:00 5.1 12 Norte 17 Noroeste 0 913.8 1.5 76
2019-12-02 09:00:00 1.2 10 Norte 13 Norte 0 913.4 1.6 86
2019-12-02 08:00:00 0.5 5 Norte 21 Norte 0 912.9 1.3 86
2019-12-02 07:00:00 2.5 7 Nordeste 15 Norte 0 912.3 0.8 79
2019-12-02 06:00:00 2.6 10 Nordeste 24 Norte 0 911.8 0.4 80
2019-12-02 05:00:00 2 12 Norte 18 Norte 0 911.6 0.3 82
2019-12-02 04:00:00 1.2 8 Nordeste 15 Norte 0 911.5 0.2 86
2019-12-02 03:00:00 1.9 5 Nordeste 17 Norte 0 911.4 0.6 85
2019-12-02 02:00:00 0.3 7 Norte 13 Norte 0 911.3 0.7 89
2019-12-02 01:00:00 1 10 Norte 13 Norte 0 911.3 1 87
2019-12-02 00:00:00 2.3 9 Norte 15 Noroeste 0 910.8 1 86
2019-12-01 23:00:00 3.2 12 Norte 22 Norte 0 910.6 1.3 83
2019-12-01 22:00:00 3 10 Noroeste 21 Norte 0 910.3 1.6 84
2019-12-01 21:00:00 3.9 12 Norte 24 Norte 0 909.8 1.6 81
2019-12-01 20:00:00 5.1 15 Norte 22 Norte 0 909.3 1.7 78
2019-12-01 19:00:00 4.8 12 Noroeste 21 Norte 0 908.7 1.6 80
2019-12-01 18:00:00 5.9 12 Norte 22 Norte 0 908.2 1.2 75
2019-12-01 17:00:00 7.7 15 Norte 26 Norte 0 907.6 0.4 72
2019-12-01 16:00:00 8.1 7 Sudeste 17 Este 0 907.1 0 78
2019-12-01 15:00:00 7.3 9 Este 18 Este 0 907 -0.1 79
2019-12-01 14:00:00 6.5 13 Este 22 Este 0 907.2 0.5 83
2019-12-01 13:00:00 6.4 18 Este 24 Este 0 907.1 1.1 87
2019-12-01 12:00:00 5.3 18 Nordeste 26 Nordeste 0 907.1 2 97
2019-12-01 11:00:00 4.9 17 Nordeste 24 Nordeste 0.7 906.7 2.1 99
2019-12-01 10:00:00 4.7 13 Este 17 Este 0.6 906 1.9 99
2019-12-01 09:00:00 4.8 10 Este 15 Este 0.6 905.1 1.1 98
2019-12-01 08:00:00 4.9 11 Sudeste 21 Sur 0.9 904.6 0.2 98
2019-12-01 07:00:00 4.8 14 Sur 28 Sur 0.5 904.1 -0.9 98
2019-12-01 06:00:00 5 14 Sur 22 Sur 1.3 904 -1.6 98
2019-12-01 05:00:00 5 16 Sur 24 Sur 0.2 904.4 -1.8 98
2019-12-01 04:00:00 4.7 16 Sur 28 Sur 0 905 -1.9 97
2019-12-01 03:00:00 4.7 13 Sur 24 Sur 0.2 905.6 -1.9 96
2019-12-01 02:00:00 4.4 9 Este 13 Este 0 906.2 -1.7 91
2019-12-01 01:00:00 4.4 9 Sudeste 18 Sur 0 906.9 -1.5 88
2019-12-01 00:00:00 4.7 8 Sudeste 11 Sudeste 0 907.5 -1.2 87
2019-11-30 23:00:00 5.1 6 Sudeste 13 Sudeste 0 907.9 -0.6 84
2019-11-30 22:00:00 5.1 4 Este 13 Oeste 0 908.4 -0.6 84
2019-11-30 21:00:00 5.3 11 Oeste 24 Oeste 0 908.7 -0.3 83
2019-11-30 20:00:00 4.7 8 Noroeste 13 Oeste 0 908.5 -0.3 84
2019-11-30 19:00:00 6 13 Oeste 18 Oeste 0 909 0.4 80
2019-11-30 18:00:00 6.7 12 Oeste 33 Oeste 0 909 0.3 70
2019-11-30 17:00:00 8.6 24 Oeste 45 Sudoeste 0 908.8 -0.3 59
2019-11-30 16:00:00 9.4 32 Oeste 55 Oeste 0 908.6 -0.9 57
2019-11-30 15:00:00 8.6 29 Oeste 46 Oeste 0 908.7 -0.4 70
2019-11-30 14:00:00 7.7 18 Oeste 45 Oeste 0 909.1 -0.5 82
2019-11-30 13:00:00 8.7 28 Oeste 48 Oeste 0.2 909.5 0.8 85
2019-11-30 12:00:00 9.1 27 Oeste 54 Oeste 0.1 909.1 -0.3 87
2019-11-30 11:00:00 9.2 27 Oeste 46 Oeste 2 909.6 0 91
2019-11-30 10:00:00 10.4 22 Sur 32 Sur 1.9 908.7 -1 100
2019-11-30 09:00:00 10.1 14 Oeste 33 Sudoeste 1.9 909.4 -0.7 100
2019-11-30 08:00:00 10.1 21 Sudoeste 37 Sur 0.9 909.6 -1.3 100
2019-11-30 07:00:00 10 24 Sur 39 Sur 0 909.7 -2.1 100
2019-11-30 06:00:00 10 25 Sur 37 Sur 0 910.1 -2.3 100
2019-11-30 05:00:00 9.5 22 Sudoeste 32 Sudoeste 0.1 910.9 -2 100
2019-11-30 04:00:00 7.8 3 Este 9 Este 0 911.8 -1.7 100
2019-11-30 03:00:00 7.8 7 Norte 13 Oeste 0.1 912.4 -1.4 99
2019-11-30 02:00:00 7.8 2 Este 8 Este 0.7 912.9 -1.5 97
2019-11-30 01:00:00 7.7 6 Este 13 Nordeste 0 913.5 -1.2 94
2019-11-30 00:00:00 7.6 5 Nordeste 9 Nordeste 0.1 913.8 -0.7 95
2019-11-29 23:00:00 7.4 6 Nordeste 13 Nordeste 0 914.4 -0.3 93
2019-11-29 22:00:00 7.2 10 Norte 13 Norte 0 914.7 -0.1 96
2019-11-29 21:00:00 6.4 10 Norte 15 Nordeste 0 914.5 0 95
2019-11-29 20:00:00 7 9 Norte 13 Norte 0 914.7 0.5 92
2019-11-29 19:00:00 7.7 6 Norte 8 Norte 0 914.8 0.5 89
2019-11-29 18:00:00 10.1 4 Sur 13 Sur 0 914.5 0 80
2019-11-29 17:00:00 10.7 11 Sur 21 Sur 0 914.2 -0.3 79
2019-11-29 16:00:00 12.4 13 Sur 18 Sur 0 914.3 -0.8 74
2019-11-29 15:00:00 11.5 11 Sudeste 17 Sudeste 0 914.5 -0.9 79
2019-11-29 14:00:00 12.1 11 Sur 18 Sur 0 914.5 -0.5 75
2019-11-29 13:00:00 10.8 7 Este 13 Este 0 915.1 0.5 81
2019-11-29 12:00:00 8.7 6 Este 13 Este 0 915.4 1.5 82
2019-11-29 11:00:00 6.9 5 Este 15 Nordeste 0 915 1.6 87
2019-11-29 10:00:00 4.4 11 Nordeste 17 Nordeste 0 914.6 2.2 99
2019-11-29 09:00:00 3.6 7 Sur 13 Este 0 913.9 2 97
2019-11-29 08:00:00 3.8 11 Norte 15 Norte 0 913.4 1.8 93
2019-11-29 07:00:00 5.1 3 Norte 13 Norte 0 912.4 1.1 95
2019-11-29 06:00:00 5.9 9 Norte 15 Noroeste 0 911.9 1 96
2019-11-29 05:00:00 7 8 Oeste 21 Oeste 0 911.6 1 92
2019-11-29 04:00:00 8.2 15 Oeste 26 Oeste 0 911.3 1 93
2019-11-29 03:00:00 8 16 Oeste 22 Oeste 0 910.9 1.4 96
2019-11-29 02:00:00 8.2 14 Oeste 26 Oeste 0 910.6 1.7 94
2019-11-29 01:00:00 9.1 18 Sudoeste 24 Oeste 0 910.3 2 95
2019-11-29 00:00:00 9.3 17 Oeste 26 Oeste 0 909.5 1.6 96
2019-11-28 23:00:00 8.9 11 Oeste 18 Sudoeste 0 908.9 1.5 100
2019-11-28 22:00:00 9.1 13 Sudoeste 22 Oeste 0.3 908.3 1.1 100
2019-11-28 21:00:00 9.1 8 Sudoeste 21 Sudoeste 0.6 907.9 1 100
2019-11-28 20:00:00 8.8 14 Sudoeste 24 Sudoeste 1.3 907.4 0.2 99
2019-11-28 19:00:00 8.7 20 Sudoeste 28 Sudoeste 0.6 907.2 0.4 98
2019-11-28 18:00:00 8.9 21 Sudoeste 30 Sudoeste 1.1 906.9 0.5 98
2019-11-28 17:00:00 9.2 14 Sudoeste 22 Sudoeste 2.4 907.2 0.4 97
2019-11-28 16:00:00 9.8 13 Oeste 32 Oeste 3 906.8 -0.9 95
2019-11-28 15:00:00 10.1 22 Sudoeste 42 Sudoeste 1.2 906.4 -1.7 91
2019-11-28 14:00:00 10.9 28 Sudoeste 48 Sudoeste 0 906.8 -1.4 84
2019-11-28 13:00:00 11.7 31 Sudoeste 42 Sur 0 907.7 -0.2 82
2019-11-28 12:00:00 9.8 17 Sudoeste 32 Sudoeste 0 908.1 0.4 96
2019-11-28 11:00:00 9.5 23 Sudoeste 32 Sudoeste 0 908.2 1.1 98
2019-11-28 10:00:00 8.2 9 Sur 17 Sudoeste 0 907.9 1.4 98
2019-11-28 09:00:00 7.9 12 Sur 28 Sudoeste 0 907.7 1.4 98
2019-11-28 08:00:00 7.9 23 Sudoeste 35 Sudoeste 0 907.1 0.8 98
2019-11-28 07:00:00 7.9 24 Sudoeste 32 Sudoeste 0 906.5 0.1 98
2019-11-28 06:00:00 7.9 19 Sudoeste 26 Sudoeste 0 906.3 0.1 98
2019-11-28 05:00:00 7.7 17 Sudoeste 26 Sudoeste 0 906.3 0.2 98
2019-11-28 04:00:00 7.4 11 Sudoeste 24 Sudoeste 0 906.4 0 96
2019-11-28 03:00:00 7.3 13 Sudoeste 35 Oeste 0 906.2 -0.1 97
2019-11-28 02:00:00 7.1 18 Sudoeste 26 Sudoeste 0 906.1 -0.3 97
2019-11-28 01:00:00 7 15 Sudoeste 21 Sudoeste 0 906.4 0.4 97
2019-11-28 00:00:00 7.1 10 Sudoeste 18 Sudoeste 0 906.3 0.7 97
2019-11-27 23:00:00 6.9 11 Sudoeste 21 Sudoeste 0 906.4 0.8 96
2019-11-27 22:00:00 6.8 17 Sudoeste 21 Sudoeste 0 906 0.7 95
2019-11-27 21:00:00 7 17 Sudoeste 24 Sudoeste 0.2 905.6 0.6 92
2019-11-27 20:00:00 7.4 13 Sur 37 Oeste 0 905.6 1.2 86
2019-11-27 19:00:00 7.4 17 Oeste 45 Oeste 0 905.3 1.3 83
2019-11-27 18:00:00 7.4 21 Oeste 39 Oeste 1 905 0.8 89
2019-11-27 17:00:00 8.6 18 Oeste 42 Oeste 0 904.4 -0.2 78
2019-11-27 16:00:00 8.7 26 Oeste 48 Oeste 0 904 -0.7 77
2019-11-27 15:00:00 9 18 Oeste 33 Oeste 0.2 904.2 -1.2 87
2019-11-27 14:00:00 8.4 22 Sudoeste 35 Sudoeste 0.4 904.6 -0.9 92
2019-11-27 06:00:00 7.9 22 Oeste 50 Oeste 0 902.4 0.7 78
2019-11-27 05:00:00 7.9 19 Oeste 32 Oeste 0 902.2 0.4 76
2019-11-27 04:00:00 7.5 21 Sudoeste 46 Sudoeste 0 902 0.5 75
2019-11-27 03:00:00 7.1 24 Sudoeste 45 Sudoeste 0 901.7 0.8 72
2019-11-27 02:00:00 6.9 24 Oeste 45 Sudoeste 0 901.8 1.3 73
2019-11-27 01:00:00 6.6 30 Oeste 63 Sudoeste 0 901.5 1 76
2019-11-27 00:00:00 6.8 43 Oeste 63 Oeste 0 900.9 0.8 71
2019-11-26 23:00:00 6.8 23 Oeste 54 Oeste 0 900.5 0.5 79
2019-11-26 22:00:00 7.4 38 Oeste 67 Oeste 0 900.5 1.6 77
2019-11-26 21:00:00 8 28 Oeste 55 Oeste 0.5 900.1 2 81
2019-11-26 20:00:00 8.9 15 Oeste 45 Sudoeste 1 900 1.3 92
2019-11-26 19:00:00 10.5 38 Sudoeste 63 Sur 0.2 898.9 0.1 82
2019-11-26 18:00:00 12 37 Sudoeste 54 Sudoeste 0 898.1 -1.8 65
2019-11-26 17:00:00 12.7 48 Sudoeste 72 Sudoeste 0 898.7 -2.8 61
2019-11-26 16:00:00 13.5 52 Sudoeste 78 Sudoeste 0 898.8 -3.6 58
2019-11-26 15:00:00 13.6 49 Sudoeste 71 Sudoeste 0 899.9 -3.7 60
2019-11-26 14:00:00 14 44 Sudoeste 72 Sudoeste 0 901.5 -2.6 58
2019-11-26 13:00:00 13.8 42 Sudoeste 55 Sudoeste 0 902.4 -2.2 61
2019-11-26 12:00:00 13.1 32 Sudoeste 46 Sur 0 903.6 -1.2 74
2019-11-26 11:00:00 10.7 24 Sur 37 Sur 0 904.1 -1 100
2019-11-26 10:00:00 9.5 18 Sur 30 Sur 0 904.6 -0.8 100
2019-11-26 09:00:00 9 18 Sur 26 Sur 0 904.8 -1.3 100
2019-11-26 08:00:00 8.7 14 Sur 30 Sudoeste 0.3 905.1 -1.7 100
2019-11-26 07:00:00 8 10 Sudeste 17 Sudeste 0 905.4 -2.3 100
2019-11-26 06:00:00 7.3 6 Sudeste 13 Este 0 906.1 -1.8 100
2019-11-26 05:00:00 6.3 9 Este 13 Este 0 906.8 -1.5 98
2019-11-26 04:00:00 6.2 8 Nordeste 13 Nordeste 0 907.7 -1.2 98
2019-11-26 03:00:00 6 8 Nordeste 9 Nordeste 0 907.9 -1.3 98
2019-11-26 02:00:00 5.5 8 Norte 11 Norte 0 908.3 -0.8 95
2019-11-26 01:00:00 6.1 8 Nordeste 11 Nordeste 0 908.9 -0.6 94
2019-11-26 00:00:00 7.3 6 Este 11 Sudoeste 0 909.2 0 92
2019-11-25 23:00:00 7.1 6 Sur 17 Sudoeste 0 909.1 -0.1 92
2019-11-25 22:00:00 6.8 14 Sudoeste 18 Sudoeste 0 909.5 0.5 90
2019-11-25 21:00:00 8.5 12 Sur 17 Sur 0 909.2 0.2 84
2019-11-25 20:00:00 8.9 7 Sur 18 Oeste 0 909.2 0.5 83
2019-11-25 19:00:00 8.9 8 Sudoeste 18 Oeste 0 909 0.6 83
2019-11-25 18:00:00 9.4 14 Oeste 30 Oeste 0 909 0.9 81
2019-11-25 17:00:00 9.8 17 Oeste 32 Oeste 0 908.7 0.7 77
2019-11-25 16:00:00 10.2 21 Oeste 35 Oeste 0 908.4 0.1 75
2019-11-25 15:00:00 10.7 17 Oeste 46 Oeste 0 908.1 -0.4 74
2019-11-25 14:00:00 11.2 27 Oeste 46 Oeste 0 908 -0.2 76
2019-11-25 13:00:00 11.1 20 Oeste 39 Oeste 0 908.3 0.8 79
2019-11-25 12:00:00 9.8 13 Oeste 22 Oeste 0 908.5 1.5 86
2019-11-25 11:00:00 8.7 9 Oeste 28 Oeste 0 908.2 1.6 89
2019-11-25 10:00:00 7.9 8 Sudoeste 21 Sudoeste 0 907.5 1.5 92
2019-11-25 09:00:00 7.3 12 Sudoeste 33 Oeste 0 907 1.2 92
2019-11-25 08:00:00 8 14 Sudoeste 22 Sudoeste 0 906.6 1.2 93
2019-11-25 07:00:00 7.6 9 Sudeste 17 Sur 0.2 906 0.6 97
2019-11-25 06:00:00 7.8 13 Oeste 24 Sudoeste 0 905.8 0.8 93
2019-11-25 05:00:00 7.7 17 Sudoeste 24 Sudoeste 0 905.4 0.6 90
2019-11-25 04:00:00 7.2 5 Sudoeste 18 Oeste 0 905.4 0 99
2019-11-25 03:00:00 7 4 Sur 8 Sur 0 905 -0.2 99
2019-11-25 02:00:00 7 5 Sudeste 8 Sudeste 0 904.8 -0.7 99
2019-11-25 01:00:00 6.8 3 Norte 8 Norte 0.3 905.4 -0.4 99
2019-11-25 00:00:00 7 3 Nordeste 8 Noroeste 0.7 905.2 -0.6 99
2019-11-24 23:00:00 6.9 4 Este 13 Sudeste 0.5 905.5 -1 99
2019-11-24 22:00:00 6.6 9 Sur 17 Sudoeste 1.5 905.8 -0.8 99
2019-11-24 21:00:00 6.3 7 Sur 21 Sur 0.3 905.8 -1.2 98
2019-11-24 20:00:00 6.1 6 Sur 15 Sur 0.3 906.5 -0.6 96
2019-11-24 19:00:00 6.1 7 Sudeste 17 Sudeste 0.4 906.6 -0.8 97
2019-11-24 18:00:00 6.3 6 Este 11 Sur 0.6 907 -0.7 94
2019-11-24 17:00:00 6.7 4 Sur 13 Sur 0.1 907.1 -0.9 87
2019-11-24 16:00:00 7.1 8 Sur 15 Sudeste 0 907.4 -1.2 79
2019-11-24 15:00:00 6.5 10 Sur 21 Sur 0 907.7 -1.7 81
2019-11-24 14:00:00 6.1 13 Sur 17 Sur 0 908 -1.2 78
2019-11-24 13:00:00 5.3 13 Sur 18 Sur 0 908.6 -0.2 80
2019-11-24 12:00:00 5.3 12 Sudoeste 21 Oeste 0 909.4 1.2 84
2019-11-24 11:00:00 4.6 8 Oeste 18 Oeste 0 909.2 1.2 86
2019-11-24 10:00:00 3.7 4 Sudoeste 15 Oeste 0 908.8 1.2 89
2019-11-24 09:00:00 2.6 5 Sudoeste 11 Sur 0 908.2 0.6 88
2019-11-24 08:00:00 2.4 12 Sudoeste 21 Oeste 0 908 0.8 88
2019-11-24 07:00:00 3.2 11 Sudoeste 18 Oeste 0 907.6 0.7 86
2019-11-24 06:00:00 2.9 13 Oeste 17 Sudoeste 0 907.6 1.1 90
2019-11-24 05:00:00 2.1 9 Oeste 21 Oeste 0 907.2 0.9 91
2019-11-24 04:00:00 2.5 8 Oeste 18 Oeste 0 906.9 0.7 91
2019-11-24 03:00:00 2.6 15 Oeste 28 Oeste 0 906.5 0.8 91
2019-11-24 02:00:00 3 20 Oeste 30 Oeste 0 906.3 1 90
2019-11-24 01:00:00 2.7 17 Oeste 26 Oeste 0 906.2 1 91
2019-11-24 00:00:00 3 10 Oeste 28 Oeste 0 905.7 1.1 87
2019-11-23 23:00:00 3.1 22 Oeste 32 Oeste 0 905.3 1.3 86
2019-11-23 22:00:00 3.2 20 Sur 28 Sur 0 905.2 1.9 87
2019-11-23 21:00:00 2.9 8 Sudeste 15 Sudoeste 0 904.6 2.2 85
2019-11-23 20:00:00 3.6 8 Oeste 17 Oeste 0 904 2.4 82
2019-11-23 19:00:00 4.5 11 Sur 30 Noroeste 0 903.3 2.7 77
2019-11-23 18:00:00 5.9 12 Oeste 24 Oeste 0 902.4 2 70
2019-11-23 17:00:00 7.6 17 Oeste 35 Oeste 0 901.6 1.8 67
2019-11-23 16:00:00 8.6 17 Noroeste 42 Noroeste 0 900.6 1.5 63
2019-11-23 15:00:00 8.9 28 Noroeste 52 Noroeste 0 900.4 1.5 57
2019-11-23 14:00:00 7.5 24 Oeste 48 Noroeste 0 899.8 2.2 64
2019-11-23 13:00:00 6.9 24 Oeste 48 Oeste 0 899.1 3.1 66
2019-11-23 12:00:00 7.3 19 Oeste 35 Oeste 0 898.9 4.2 66
2019-11-23 11:00:00 6.6 17 Oeste 42 Noroeste 0 897.6 4.1 70
2019-11-23 10:00:00 4.7 20 Oeste 32 Noroeste 0 896 3.9 78
2019-11-23 09:00:00 2.1 14 Oeste 28 Oeste 0 894.7 4.2 81
2019-11-23 08:00:00 2.8 14 Oeste 37 Oeste 0 893.5 4.5 76
2019-11-23 07:00:00 3 19 Oeste 41 Oeste 0 892.1 4 74
2019-11-23 06:00:00 3.3 29 Oeste 45 Oeste 0 890.5 3.1 77
2019-11-23 05:00:00 2.8 22 Oeste 46 Oeste 0 889 2.4 87
2019-11-23 04:00:00 3 28 Oeste 45 Oeste 0 888.1 2.4 89
2019-11-23 03:00:00 2.8 33 Oeste 50 Oeste 0 887.4 2.7 89
2019-11-23 02:00:00 3.5 28 Oeste 58 Oeste 0 886.6 2 86
2019-11-23 01:00:00 4.5 25 Oeste 59 Oeste 0 885.7 1.8 88
2019-11-23 00:00:00 5.5 31 Oeste 50 Sudoeste 0 884.7 1.3 86
2019-11-22 23:00:00 5.4 19 Sudoeste 35 Sudoeste 0 884.6 0.8 86
2019-11-22 22:00:00 5.6 27 Sudoeste 42 Sudoeste 0 883.9 -0.3 85
2019-11-22 21:00:00 5.3 27 Sudoeste 37 Sudoeste 0.1 883.4 -0.4 95
2019-11-22 20:00:00 5.5 26 Sudoeste 35 Sudoeste 0.8 883.8 -0.2 92
2019-11-22 19:00:00 6.2 24 Sudoeste 35 Sudoeste 0.2 884.2 0.9 86
2019-11-22 18:00:00 6.8 17 Sudoeste 32 Oeste 0 883.8 1.1 78
2019-11-22 17:00:00 8.3 19 Oeste 42 Oeste 0 884 1.1 74
2019-11-22 16:00:00 8.8 25 Oeste 46 Oeste 0 883.3 -0.5 75
2019-11-22 15:00:00 10.1 31 Oeste 50 Oeste 0.6 882.7 -3 83
2019-11-22 14:00:00 10.1 28 Sudoeste 45 Sur 0 882.9 -3.9 91
2019-11-22 13:00:00 8.2 17 Sur 35 Sur 1.9 883.8 -4.3 99
2019-11-22 12:00:00 7 21 Sur 35 Sur 1.5 885.7 -3.7 99
2019-11-22 11:00:00 6.3 18 Sur 30 Sur 1.5 886.8 -3.7 99
2019-11-22 10:00:00 5.8 22 Sur 37 Sur 0.3 888.1 -4 99
2019-11-22 09:00:00 5.6 19 Sur 33 Sur 0.8 889.4 -4 98
2019-11-22 08:00:00 5.5 19 Sur 33 Sur 1.7 890.5 -4.2 98
2019-11-22 07:00:00 5.3 22 Sur 37 Sur 2.2 892.1 -4 98
2019-11-22 06:00:00 5.1 17 Sur 30 Sur 1.3 893.4 -3.8 99
2019-11-22 05:00:00 4.6 15 Sur 26 Sur 0.6 894.7 -3.1 99
2019-11-22 04:00:00 4.1 14 Sudeste 22 Sur 0.2 896.1 -2.8 98
2019-11-22 03:00:00 3.5 8 Sur 15 Sur 0 897.2 -2.1 96
2019-11-22 02:00:00 3.3 6 Sudeste 11 Este 0 897.8 -2.2 92
2019-11-22 01:00:00 3.6 5 Nordeste 9 Sur 0 898.9 -1.1 89
2019-11-22 00:00:00 3.5 6 Sur 15 Sur 0 899.3 -1.1 88
2019-11-21 23:00:00 4 10 Sur 13 Sur 0 900 -0.5 84
2019-11-21 22:00:00 4.4 5 Sudeste 9 Sudeste 0 900 -0.6 81
2019-11-21 21:00:00 3.7 4 Sur 9 Este 0 900.4 0 84
2019-11-21 20:00:00 3.8 2 Oeste 9 Oeste 0 900.5 0.1 82
2019-11-21 19:00:00 4.4 3 Oeste 8 Noroeste 0 900.6 0.3 79
2019-11-21 18:00:00 6 3 Noroeste 21 Noroeste 0 900.4 0.1 72
2019-11-21 17:00:00 6.4 14 Oeste 33 Oeste 0 900.4 0 70
2019-11-21 16:00:00 7 15 Oeste 28 Oeste 0 900.3 -0.6 68
2019-11-21 15:00:00 7.7 18 Sudoeste 26 Sudoeste 0 900.3 -1 64
2019-11-21 14:00:00 7.1 18 Oeste 30 Oeste 0 900.4 -0.8 68
2019-11-21 13:00:00 6.5 14 Oeste 26 Oeste 0 900.9 0 72
2019-11-21 12:00:00 5.9 14 Sudoeste 32 Oeste 0 901.3 0.7 74
2019-11-21 11:00:00 5.5 13 Oeste 22 Oeste 0 901.2 0.9 78
2019-11-21 10:00:00 3.8 16 Oeste 24 Oeste 0 900.9 0.9 89
2019-11-21 09:00:00 1.4 16 Oeste 22 Oeste 0 900.6 0.9 96
2019-11-21 08:00:00 -- -- -- -- -- -- -- -- --
2019-11-21 07:00:00 -- -- -- -- -- -- -- -- --
2019-11-21 06:00:00 -- -- -- -- -- -- -- -- --
2019-11-21 05:00:00 -- -- -- -- -- -- -- -- --
2019-11-21 04:00:00 -- -- -- -- -- -- -- -- --
2019-11-21 03:00:00 -- -- -- -- -- -- -- -- --
2019-11-21 02:00:00 -- -- -- -- -- -- -- -- --
2019-11-21 01:00:00 -- -- -- -- -- -- -- -- --
2019-11-21 00:00:00 -- -- -- -- -- -- -- -- --
2019-11-20 23:00:00 -- -- -- -- -- -- -- -- --
2019-11-20 22:00:00 -- -- -- -- -- -- -- -- --
2019-11-20 21:00:00 4.7 17 Sudoeste 28 Sur 0 900.6 0.2 94
2019-11-20 20:00:00 4.6 13 Sur 18 Sur 0 900.4 0 94
2019-11-20 19:00:00 4.8 12 Sur 24 Sur 0 900.3 -0.3 92
2019-11-20 18:00:00 5.3 8 Sur 26 Sur 0 900.4 -0.4 90
2019-11-20 17:00:00 5.4 21 Sur 28 Sur 0 900.4 -1.1 89
2019-11-20 16:00:00 5.4 17 Sur 30 Sur 0 900.6 -1.6 92
2019-11-20 15:00:00 5.1 18 Sur 30 Sur 0 900.8 -2.1 96
2019-11-20 14:00:00 5.1 16 Sur 22 Sur 0.1 901.5 -1.7 98
2019-11-20 13:00:00 4.8 10 Sur 18 Sudeste 1.2 902.2 -1.1 99
2019-11-20 12:00:00 4.4 11 Sur 18 Sudeste 1.3 902.9 -0.5 99
2019-11-20 11:00:00 4 12 Sur 18 Sur 0.6 903.2 -0.4 99
2019-11-20 10:00:00 3.9 12 Sur 17 Sur 0.7 903.3 -0.6 99
2019-11-20 09:00:00 3.8 7 Sudeste 11 Sudeste 0.9 903.4 -0.9 99
2019-11-20 08:00:00 3.5 5 Nordeste 9 Nordeste 0.2 903.6 -1.2 99
2019-11-20 07:00:00 3.1 6 Nordeste 9 Norte 0.7 903.9 -1.4 99
2019-11-20 06:00:00 3.1 6 Nordeste 9 Nordeste 0 904.3 -1.6 98
2019-11-20 05:00:00 3.1 5 Nordeste 11 Nordeste 0 904.8 -1.6 98
2019-11-20 04:00:00 2.9 8 Nordeste 11 Nordeste 0 905.3 -2 98
2019-11-20 03:00:00 2.9 8 Nordeste 11 Este 0 905.9 -1.8 97
2019-11-20 02:00:00 3 8 Nordeste 11 Este 0 906.4 -1.7 96
2019-11-20 01:00:00 3 5 Nordeste 9 Nordeste 0.7 907.3 -1.2 91
2019-11-20 00:00:00 3.4 5 Norte 11 Nordeste 0 907.7 -0.7 86
2019-11-19 23:00:00 3.6 6 Norte 11 Norte 0 908.1 -0.5 85
2019-11-19 22:00:00 4.2 6 Norte 9 Nordeste 0 908.5 -0.1 84
2019-11-19 21:00:00 4.4 3 Este 5 Este 0 908.4 -0.3 80
2019-11-19 20:00:00 4.4 5 Nordeste -- -- 0 908.6 -0.3 79
2019-11-19 19:00:00 4.6 5 Este 5 Este 0 908.6 -0.5 77
2019-11-19 18:00:00 4.7 0 Calma 5 Sudeste 0 908.7 -1 75
2019-11-19 17:00:00 4.8 5 Sudoeste 9 Sudoeste 0 908.9 -1.4 76
2019-11-19 16:00:00 4.9 6 Sudoeste 13 Sudoeste 0 909.1 -1.8 74
2019-11-19 15:00:00 4.9 7 Sur 13 Sudoeste 0 909.7 -1.7 75
2019-11-19 14:00:00 4.8 9 Sudeste 15 Sudeste 0 910.3 -1.4 75
2019-11-19 13:00:00 4.2 7 Sudeste 13 Sudeste 0 910.9 -1 78
2019-11-19 12:00:00 3.3 6 Este 13 Este 0 911.4 -0.4 79
2019-11-19 11:00:00 2 5 Este 9 Este 0 911.7 0.2 84
2019-11-19 10:00:00 0.3 5 Norte 11 Norte 0 911.9 0.3 92
2019-11-19 09:00:00 -2.4 9 Norte 11 Norte 0 911.8 0.1 92
2019-11-19 08:00:00 -2.3 4 Nordeste 9 Norte 0 911.5 -0.4 92
2019-11-19 07:00:00 -1.7 9 Norte 11 Norte 0 911.6 -0.6 92
2019-11-19 06:00:00 -1.6 6 Norte 11 Norte 0 911.7 -0.4 93
2019-11-19 05:00:00 -2.1 6 Norte 13 Norte 0 911.9 -0.4 94
2019-11-19 04:00:00 -2.4 9 Norte 11 Norte 0 912.2 -0.5 92
2019-11-19 03:00:00 -1.9 3 Norte 8 Norte 0 912.1 -0.6 91
2019-11-19 02:00:00 -1.5 4 Noroeste 11 Noroeste 0 912.3 -0.6 91
2019-11-19 01:00:00 -1.4 5 Oeste 8 Oeste 0 912.7 -0.3 90
2019-11-19 00:00:00 -0.2 4 Este 8 Sudeste 0 912.7 -0.2 87
2019-11-18 23:00:00 0.7 4 Norte 13 Norte 0 912.9 0.3 85
2019-11-18 22:00:00 0.6 9 Noroeste 13 Norte 0 913 0.8 87
2019-11-18 21:00:00 1.4 8 Norte 15 Noroeste 0 912.9 1.1 84
2019-11-18 20:00:00 1.9 9 Oeste 21 Norte 0 912.6 0.9 84
2019-11-18 19:00:00 3.3 10 Norte 15 Norte 0 912.2 0.7 79
2019-11-18 18:00:00 5.5 8 Norte 21 Norte 0 911.8 0.7 67
2019-11-18 17:00:00 7.7 9 Noroeste 22 Norte 0 911.7 0.7 58
2019-11-18 16:00:00 8.5 12 Noroeste 28 Noroeste 0 911.5 0.3 55
2019-11-18 15:00:00 8.4 17 Noroeste 28 Norte 0 911.1 -0.1 59
2019-11-18 14:00:00 8.3 19 Noroeste 35 Noroeste 0 911 -0.2 59
2019-11-18 13:00:00 7.6 18 Noroeste 28 Noroeste 0 911.2 0.3 61
2019-11-18 12:00:00 7.2 15 Noroeste 28 Norte 0 911.2 0.9 64
2019-11-18 11:00:00 5.7 16 Noroeste 24 Noroeste 0 911.2 1.7 71
2019-11-18 10:00:00 3.8 14 Noroeste 22 Noroeste 0 910.9 1.8 78
2019-11-18 09:00:00 1.4 12 Noroeste 21 Noroeste 0 910.3 1.8 87
2019-11-18 08:00:00 0 14 Noroeste 22 Noroeste 0 909.5 1.2 91
2019-11-18 07:00:00 0.1 12 Oeste 18 Noroeste 0 909.1 1.3 89
2019-11-18 06:00:00 0.9 12 Oeste 17 Oeste 0 908.5 1.1 87
2019-11-18 05:00:00 0.5 10 Noroeste 18 Noroeste 0 908.3 1.2 89
2019-11-18 04:00:00 1.1 13 Noroeste 18 Oeste 0 907.8 0.7 88
2019-11-18 03:00:00 1.1 10 Oeste 22 Noroeste 0 907.4 1 89
2019-11-18 02:00:00 1.5 8 Oeste 17 Oeste 0 907.1 1.1 89
2019-11-18 01:00:00 1.4 10 Oeste 22 Oeste 0 907.1 1.4 91
2019-11-18 00:00:00 2.9 15 Oeste 28 Oeste 0 906.4 1.1 83
2019-11-17 23:00:00 2.4 13 Oeste 22 Oeste 0 906 1.1 86
2019-11-17 22:00:00 2.3 12 Oeste 32 Oeste 0 905.7 0.8 88
2019-11-17 21:00:00 3 20 Oeste 30 Oeste 0 905.3 0.7 86
2019-11-17 20:00:00 2.5 15 Oeste 22 Oeste 0 904.9 0.2 83
2019-11-17 19:00:00 3.4 8 Oeste 15 Sur 0 904.9 0.6 75
2019-11-17 18:00:00 5 11 Oeste 45 Noroeste 0 904.6 0.1 67
2019-11-17 17:00:00 7.3 27 Noroeste 39 Noroeste 0 904.7 0 60
2019-11-17 16:00:00 8.6 24 Oeste 45 Oeste 0 904.3 -1 67
2019-11-17 15:00:00 9 24 Oeste 37 Oeste 0 904.5 -1.3 66
2019-11-17 14:00:00 7.8 21 Oeste 37 Oeste 0 904.7 -1.5 81
2019-11-17 13:00:00 7.1 28 Oeste 41 Oeste 0 905.3 -1 90
2019-11-17 12:00:00 5.9 15 Oeste 21 Oeste 0 905.8 -0.8 96
2019-11-17 11:00:00 3 0 Calma 8 Nordeste 0 906.2 -0.2 98
2019-11-17 10:00:00 1.8 0 Calma 5 Norte 0.2 906.3 -0.5 98
2019-11-17 09:00:00 1.1 5 Norte 9 Nordeste 0 906.6 -0.3 97
2019-11-17 08:00:00 1 0 Calma 8 Nordeste 0.1 906.4 -0.8 96
2019-11-17 07:00:00 0.8 7 Norte 9 Nordeste 0 906.8 -0.9 96
2019-11-17 06:00:00 1.9 5 Nordeste 11 Oeste 0.1 906.9 -0.8 97
2019-11-17 05:00:00 1.7 3 Sudoeste 8 Sudoeste 0 907.2 -1.3 96
2019-11-17 04:00:00 1.5 3 Sur 13 Oeste 0 907.7 -1.2 95
2019-11-17 03:00:00 1.4 4 Sudoeste 15 Oeste 0 907.7 -1.3 92
2019-11-17 02:00:00 1.4 12 Oeste 24 Oeste 0 908.5 -1 92
2019-11-17 01:00:00 1.4 7 Oeste 17 Noroeste 0 908.9 -0.7 91
2019-11-17 00:00:00 1.6 12 Oeste 30 Sudoeste 0 909 -0.5 91
2019-11-16 23:00:00 2.3 20 Oeste 32 Oeste 0 909.5 0.1 89
2019-11-16 22:00:00 2.2 17 Oeste 30 Oeste 0 909.6 0.3 87
2019-11-16 21:00:00 1.9 19 Oeste 30 Oeste 0 909.5 -0.1 87
2019-11-16 20:00:00 2 23 Oeste 37 Oeste 0 909.4 0.2 86
2019-11-16 19:00:00 2.2 23 Oeste 32 Oeste 0 909.3 0.4 81
2019-11-16 18:00:00 2.6 21 Oeste 30 Oeste 0 909.6 0.9 80
2019-11-16 17:00:00 3.9 14 Oeste 32 Oeste 0 909.2 0.8 71
2019-11-16 16:00:00 4.1 21 Oeste 41 Oeste 0 908.9 0 77
2019-11-16 15:00:00 4.6 24 Oeste 37 Oeste 0 908.7 -0.6 75
2019-11-16 14:00:00 5 23 Oeste 37 Oeste 0 908.4 -0.4 73
2019-11-16 13:00:00 2.7 25 Oeste 37 Oeste 0 908.9 0.5 84
2019-11-16 12:00:00 2.2 23 Oeste 33 Oeste 0 909.3 1.7 87
2019-11-16 11:00:00 1.8 23 Oeste 35 Oeste 0 908.8 1.4 87
2019-11-16 10:00:00 1.4 24 Oeste 41 Oeste 0 908.4 1.4 88
2019-11-16 09:00:00 0 24 Oeste 35 Oeste 0 907.6 1.1 91
2019-11-16 08:00:00 -0.2 19 Oeste 26 Oeste 0 907.4 1.2 91
2019-11-16 07:00:00 -1.1 15 Oeste 24 Oeste 0 907 0.9 92
2019-11-16 06:00:00 -1 12 Oeste 18 Oeste 0 906.5 1 92
2019-11-16 05:00:00 -1 12 Oeste 21 Oeste 0 906.2 1.5 94
2019-11-16 04:00:00 -0.7 9 Oeste 24 Oeste 0 906.1 1.3 92
2019-11-16 03:00:00 -0.8 16 Oeste 26 Oeste 0 905.5 1.3 92
2019-11-16 02:00:00 -1.4 12 Oeste 15 Sudoeste 0 904.7 1.1 92
2019-11-16 01:00:00 -0.8 8 Oeste 15 Oeste 0 904.8 2.2 93
2019-11-16 00:00:00 0 10 Oeste 17 Noroeste 0 904.2 2 91
2019-11-15 23:00:00 0.5 13 Noroeste 28 Noroeste 0 903.6 1.5 92
2019-11-15 22:00:00 0.4 13 Noroeste 22 Noroeste 0 902.6 1 92
2019-11-15 21:00:00 -0.1 10 Oeste 18 Noroeste 0 902.2 1.5 93
2019-11-15 20:00:00 0.5 10 Oeste 30 Oeste 0 902.1 1.8 92
2019-11-15 19:00:00 1.2 16 Oeste 28 Oeste 0 901.6 1.4 88
2019-11-15 18:00:00 1.7 11 Oeste 17 Oeste 0 900.7 0.6 84
2019-11-15 17:00:00 2.1 9 Oeste 18 Oeste 0 900.3 0.1 86
2019-11-15 16:00:00 2.5 14 Oeste 33 Oeste 0 900.2 -0.1 85
2019-11-15 15:00:00 2.5 25 Oeste 39 Oeste 0 900.1 -0.4 84
2019-11-15 14:00:00 1.9 27 Oeste 39 Oeste 0 900.2 0.2 86
2019-11-15 13:00:00 1.9 21 Oeste 37 Oeste 0 900.3 0.6 87
2019-11-15 12:00:00 1.4 27 Oeste 41 Oeste 0 900.5 1 88
2019-11-15 11:00:00 0.9 24 Oeste 37 Oeste 0 900 0.8 90
2019-11-15 10:00:00 0.4 26 Oeste 41 Oeste 0.2 899.7 0.6 91
2019-11-15 09:00:00 -0.1 17 Oeste 30 Oeste 0.7 899.5 1.3 92
2019-11-15 08:00:00 0.5 17 Noroeste 26 Oeste 0.8 899.2 0.6 95
2019-11-15 07:00:00 0.3 9 Oeste 18 Oeste 2 899.1 0.9 98
2019-11-15 06:00:00 0.2 9 Oeste 24 Noroeste 0.6 898.2 -0.3 98
2019-11-15 05:00:00 0.2 9 Oeste 18 Oeste 0.1 898.6 0.1 98
2019-11-15 04:00:00 0.3 11 Oeste 18 Oeste 0.7 898.2 -0.5 98
2019-11-15 03:00:00 0.4 12 Oeste 17 Noroeste 1.3 898.5 0.1 98
2019-11-15 02:00:00 0.2 13 Oeste 21 Oeste 4 898.5 0.4 98
2019-11-15 01:00:00 0.2 12 Oeste 17 Oeste 2.7 898.7 0.9 98
2019-11-15 00:00:00 0.1 12 Oeste 24 Oeste 1.6 898.4 1.4 98
2019-11-14 23:00:00 0.1 11 Oeste 18 Oeste 1.6 898.1 1.7 98
2019-11-14 22:00:00 0.4 15 Oeste 28 Oeste 0.6 897.8 2.1 96
2019-11-14 21:00:00 0.8 11 Oeste 24 Oeste 0.1 897 2.4 96
2019-11-14 20:00:00 0.5 5 Oeste 35 Noroeste 2.1 896.4 2.5 96
2019-11-14 19:00:00 1.4 22 Oeste 32 Oeste 0.5 895.7 2.2 91
2019-11-14 18:00:00 2 5 Oeste 15 Oeste 0.1 894.6 1.3 92
2019-11-14 17:00:00 1.2 6 Oeste 17 Oeste 1 893.9 0.4 94
2019-11-14 16:00:00 0.5 12 Oeste 30 Oeste 0.1 893.5 -0.8 94
2019-11-14 15:00:00 1.1 20 Oeste 30 Oeste 0.3 893.3 -2.2 94
2019-11-14 14:00:00 0.4 16 Oeste 45 Oeste 0.3 893.5 -2.9 95
2019-11-14 13:00:00 1.9 20 Sudoeste 32 Oeste 0.4 894.3 -3.2 91
2019-11-14 12:00:00 2.6 18 Oeste 39 Oeste 0 895.5 -2 75
2019-11-14 11:00:00 2.2 19 Oeste 41 Oeste 0 896.4 -1.8 75
2019-11-14 10:00:00 1.9 23 Oeste 42 Oeste 0 897.5 -0.7 82
2019-11-14 09:00:00 0.5 24 Oeste 39 Oeste 0 897.5 -0.9 86
2019-11-14 08:00:00 0.4 9 Noroeste 35 Oeste 0 898.2 -0.4 86
2019-11-14 07:00:00 0.6 18 Oeste 45 Oeste 0 898.2 -0.7 80
2019-11-14 06:00:00 1.4 26 Oeste 41 Noroeste 0 898.4 -0.9 78
2019-11-14 05:00:00 2.3 21 Oeste 33 Oeste 0 898.6 -0.6 80
2019-11-14 04:00:00 3.7 21 Oeste 32 Oeste 0 898.9 -0.9 85
2019-11-14 03:00:00 4.4 17 Oeste 48 Oeste 0.2 899.3 -1.6 90
2019-11-14 02:00:00 5.2 27 Oeste 48 Oeste 0 899.2 -2.8 87
2019-11-14 01:00:00 5.6 28 Oeste 46 Oeste 0 899.8 -3.5 86
2019-11-14 00:00:00 6.3 27 Oeste 52 Oeste 0 900.9 -3.3 79
2019-11-13 23:00:00 6.2 26 Oeste 45 Oeste 0 902 -2.4 78
2019-11-13 22:00:00 6.7 27 Oeste 52 Oeste 0 903.3 -2.1 74
2019-11-13 21:00:00 6.6 32 Oeste 50 Oeste 0 904.2 -1.2 79
2019-11-13 20:00:00 6.7 16 Oeste 42 Oeste 0 904.4 -2.1 76
2019-11-13 19:00:00 7 26 Oeste 58 Oeste 0 905.4 -1.3 77
2019-11-13 18:00:00 7.8 30 Oeste 45 Oeste 0 905.4 -1.6 75
2019-11-13 17:00:00 9.9 23 Oeste 48 Oeste 0 906.5 -0.9 65
2019-11-13 16:00:00 10.9 25 Oeste 46 Oeste 0 906.7 -1.4 62
2019-11-13 15:00:00 11.4 30 Oeste 46 Oeste 0 907 -1 59
2019-11-13 14:00:00 12.4 24 Oeste 33 Oeste 0 907.4 -0.4 61
2019-11-13 13:00:00 10.9 5 Oeste 17 Oeste 0 908.1 0.7 63
2019-11-13 12:00:00 10.8 6 Norte 18 Norte 0 908 1.5 59
2019-11-13 11:00:00 10.1 10 Noroeste -- -- -- 907.8 2.6 67
2019-11-13 10:00:00 8.4 7 Noroeste 15 Oeste 0 907.4 3.2 78
2019-11-13 09:00:00 5.2 5 Noroeste 17 Noroeste 0 906.5 3.5 88
2019-11-13 08:00:00 5.7 12 Noroeste 21 Oeste 0 905.2 3.3 85
2019-11-13 07:00:00 7.2 12 Oeste 42 Norte 0 904.2 3.1 79
2019-11-13 06:00:00 6.8 14 Norte 24 Norte 0 903 2.1 83
2019-11-13 05:00:00 6.6 12 Noroeste 21 Noroeste 0 901.9 1.3 97
2019-11-13 04:00:00 4.5 7 Noroeste 13 Oeste 0 901.1 0.1 99
2019-11-13 03:00:00 6 8 Nordeste 13 Oeste 0 900.9 -0.2 100
2019-11-13 02:00:00 6.6 3 Sudoeste 30 Norte 3.3 900.6 -1.4 100
2019-11-13 01:00:00 7.3 6 Oeste 11 Oeste 0.7 901 -1.7 100
2019-11-13 00:00:00 6.9 6 Sudoeste 18 Sudoeste 0.8 901.1 -2.4 100
2019-11-12 23:00:00 6.6 14 Sudoeste 24 Sudoeste 0 902 -1.7 99
2019-11-12 22:00:00 6.4 17 Sudoeste 26 Sudoeste 0.4 902.7 -1.6 99
2019-11-12 21:00:00 6.3 14 Sudoeste 24 Sudoeste 0.4 903.5 -2.1 99
2019-11-12 20:00:00 6.4 18 Sudoeste 32 Sur 1.8 903.7 -2.6 98
2019-11-12 19:00:00 6.4 18 Sudoeste 28 Sudoeste 1.9 904.3 -2.8 96
2019-11-12 18:00:00 6.7 4 Sur 8 Sudoeste 2.3 905.6 -2.4 92
2019-11-12 17:00:00 6.9 8 Sudoeste 22 Oeste 0.7 906.3 -2.8 89
2019-11-12 16:00:00 7.1 14 Oeste 35 Oeste 0 907.1 -3 85
2019-11-12 15:00:00 7 21 Oeste 41 Oeste 0 908 -2.9 81
2019-11-12 14:00:00 6.7 23 Oeste 37 Oeste 0 909.1 -2.2 81
2019-11-12 13:00:00 6.4 18 Oeste 30 Oeste 0 910.1 -0.8 80
2019-11-12 12:00:00 6.3 20 Oeste 32 Oeste 0 910.9 -0.4 78
2019-11-12 11:00:00 5.5 23 Oeste 35 Oeste 0 911.3 0 81
2019-11-12 10:00:00 4 18 Oeste 37 Oeste 0 910.9 -0.2 84
2019-11-12 09:00:00 3.4 19 Oeste 33 Oeste 0 911.3 -0.4 85
2019-11-12 08:00:00 3.4 21 Oeste 32 Oeste 0 911.3 -0.8 83
2019-11-12 07:00:00 3.5 20 Oeste 37 Noroeste 0 911.1 -1.1 81
2019-11-12 06:00:00 3.2 17 Oeste 30 Oeste 0 911.7 -0.8 83
2019-11-12 05:00:00 3.4 19 Oeste 33 Oeste 0 912.1 -0.9 82
2019-11-12 04:00:00 3.6 21 Oeste 30 Oeste 0 912.2 -1.6 79
2019-11-12 03:00:00 3.4 19 Oeste 28 Oeste 0 912.5 -1.7 79
2019-11-12 02:00:00 2.8 15 Oeste 28 Oeste 0 913 -1.1 80
2019-11-12 01:00:00 2.6 10 Oeste 17 Oeste 0 913.8 -0.3 81
2019-11-12 00:00:00 1.5 7 Oeste 17 Noroeste 0 914.2 0.3 81
2019-11-11 23:00:00 1.9 9 Oeste 15 Oeste 0 914.1 0 83
2019-11-11 22:00:00 1.8 5 Oeste 17 Noroeste 0 914.1 0.5 81
2019-11-11 21:00:00 2.6 12 Noroeste 17 Norte 0 913.9 1 81
2019-11-11 20:00:00 3.1 8 Oeste 11 Oeste 0 914.1 1.3 78
2019-11-11 19:00:00 5.2 4 Oeste 26 Norte 0 913.6 0.9 67
2019-11-11 18:00:00 6.7 16 Norte 35 Norte 0 912.9 1.1 60
2019-11-11 17:00:00 9 13 Norte 26 Norte 0 912.8 1.6 56
2019-11-11 16:00:00 8.8 18 Norte 54 Norte 0 912.7 0.9 53
2019-11-11 15:00:00 10 39 Norte 52 Norte 0 911.8 0.1 54
2019-11-11 14:00:00 10.5 30 Norte 48 Norte 0 911.2 0 53
2019-11-11 13:00:00 11.5 26 Norte 41 Noroeste 0 911.8 0.9 54
2019-11-11 12:00:00 8.6 6 Este 26 Este 0 911.7 0.7 80
2019-11-11 11:00:00 5.2 11 Este 17 Nordeste 0 911.2 0.4 89
2019-11-11 10:00:00 4.2 3 Norte 13 Norte 0 910.9 0.2 93
2019-11-11 09:00:00 3.2 0 Calma 9 Nordeste 0 911 0.1 96
2019-11-11 08:00:00 3.2 6 Norte 9 Norte 0 910.8 -0.4 97
2019-11-11 07:00:00 2.9 4 Nordeste 9 Nordeste 0 910.7 -0.6 96
2019-11-11 06:00:00 2.6 6 Este 9 Este 0 910.9 -0.6 96
2019-11-11 05:00:00 3 7 Sudeste 11 Sudeste 0 911.2 -0.7 93
2019-11-11 04:00:00 3.2 -- -- 9 Este 0 911.3 -0.9 91
2019-11-11 03:00:00 3.8 8 Oeste 21 Oeste 0 911.5 -1.6 92
2019-11-11 02:00:00 3.4 12 Oeste 18 Oeste 0 911.9 -1.1 92
2019-11-11 01:00:00 3.2 8 Oeste 21 Oeste 0 912.2 -0.8 92
2019-11-11 00:00:00 3.2 13 Oeste 26 Oeste 0 913.1 0.5 92
2019-11-10 23:00:00 3 14 Oeste 22 Oeste 0 913 0.2 92
2019-11-10 22:00:00 3 15 Oeste 22 Oeste 0 913 0.3 92
2019-11-10 21:00:00 3.3 12 Oeste 17 Sudoeste 0 912.6 0.4 91
2019-11-10 20:00:00 3.6 8 Oeste 17 Oeste 0 912.8 1.1 89
2019-11-10 19:00:00 4.2 10 Oeste 21 Oeste 0 912.7 1 87
2019-11-10 18:00:00 4.8 6 Oeste 22 Noroeste 0 912.2 0.4 84
2019-11-10 17:00:00 5 16 Noroeste 28 Noroeste 0 911.7 -0.2 82
2019-11-10 16:00:00 4.6 16 Noroeste 30 Noroeste 0.2 911.7 -0.2 90
2019-11-10 15:00:00 3.8 15 Oeste 30 Oeste 0.4 911.8 -0.6 90
2019-11-10 14:00:00 3.4 19 Oeste 35 Oeste 0.5 911.9 0 92
2019-11-10 13:00:00 3.3 23 Oeste 33 Oeste 0.4 911.9 0 91
2019-11-10 12:00:00 3.5 21 Oeste 42 Oeste 0.1 912.4 0.5 89
2019-11-10 11:00:00 3.6 22 Oeste 37 Oeste 0 911.9 -0.1 87
2019-11-10 10:00:00 3 18 Oeste 28 Oeste 0 911.9 0 88
2019-11-10 09:00:00 2.8 17 Oeste 28 Oeste 0 911.9 -0.3 88
2019-11-10 08:00:00 2.2 11 Oeste 21 Oeste 0 912 -0.4 88
2019-11-10 07:00:00 2.3 11 Oeste 26 Oeste 0 911.9 -0.6 84
2019-11-10 06:00:00 2.1 17 Oeste 28 Oeste 0 912.2 -0.8 85
2019-11-10 05:00:00 2.1 18 Oeste 32 Oeste 0 912.4 -0.9 82
2019-11-10 04:00:00 2.4 15 Oeste 26 Oeste 0 912.5 -0.3 75
2019-11-10 03:00:00 2 13 Noroeste 30 Noroeste 0 913 0.5 76
2019-11-10 02:00:00 2.7 20 Noroeste 32 Oeste 0 913.3 0.7 73
2019-11-10 01:00:00 3.4 20 Oeste 37 Oeste 0 912.8 0.6 74
2019-11-10 00:00:00 3.3 21 Oeste 33 Oeste 0 912.5 0.7 77
2019-11-09 23:00:00 3.3 12 Oeste 21 Oeste 0 912.6 1.6 83
2019-11-09 22:00:00 4.2 10 Oeste 24 Noroeste 0 912.2 1.4 84
2019-11-09 21:00:00 5.9 18 Oeste 39 Noroeste 0 911.8 0.9 74
2019-11-09 20:00:00 6.6 32 Oeste 48 Oeste 0 911 0.2 74
2019-11-09 19:00:00 7.4 21 Oeste 35 Oeste 0 910.8 0.1 68
2019-11-09 18:00:00 8.8 21 Oeste 41 Noroeste 0 910.9 0.2 57
2019-11-09 17:00:00 10.8 24 Noroeste 42 Noroeste 0 910.8 -0.6 53
2019-11-09 16:00:00 11.6 27 Oeste 41 Noroeste 0 910.7 -1.7 53
2019-11-09 15:00:00 11.1 26 Oeste 45 Oeste 0 910.7 -2.2 70
2019-11-09 14:00:00 9.5 30 Oeste 45 Sudoeste 0 911.4 -2.2 80
2019-11-09 13:00:00 7.2 23 Sudoeste 30 Oeste 0 912.4 -1.6 88
2019-11-09 12:00:00 6.3 19 Sudoeste 28 Oeste 0 912.9 -1 88
2019-11-09 11:00:00 5.4 15 Sudoeste 26 Sudoeste 0 913.6 -0.2 89
2019-11-09 10:00:00 4.2 16 Sudoeste 22 Sudoeste 0.1 914 0 91
2019-11-09 09:00:00 3.9 10 Sudoeste 22 Oeste 0.1 913.9 -0.2 93
2019-11-09 08:00:00 3.8 15 Oeste 26 Oeste 0 913.8 -0.2 90
2019-11-09 07:00:00 3.8 14 Oeste 26 Oeste 0 914 0 89
2019-11-09 06:00:00 3.6 15 Oeste 26 Oeste 0 914.1 -0.2 89
2019-11-09 05:00:00 3.1 15 Oeste 30 Sudoeste 0 914 -0.2 90
2019-11-09 04:00:00 3.2 24 Oeste 37 Oeste 0 914 -0.7 91
2019-11-09 03:00:00 2.4 23 Oeste 32 Oeste 0 914.3 -0.4 90
2019-11-09 02:00:00 2.6 15 Oeste 30 Oeste 0 914.2 -0.2 84
2019-11-09 01:00:00 2.7 16 Sudoeste 30 Oeste 0 914.7 0.3 83
2019-11-09 00:00:00 3 22 Oeste 37 Oeste 0 914.7 0.8 82
2019-11-08 23:00:00 2.7 21 Oeste 32 Oeste 0 914.4 0.7 83
2019-11-08 22:00:00 1.9 17 Oeste 32 Oeste 0 914.4 1.1 85
2019-11-08 21:00:00 3.3 18 Oeste 32 Oeste 0 913.9 1.3 77
2019-11-08 20:00:00 3.8 22 Oeste 35 Oeste 0 913.7 2 77
2019-11-08 19:00:00 4.9 22 Oeste 32 Oeste 0 913.3 2.4 65
2019-11-08 18:00:00 5.9 13 Oeste 39 Oeste 0 912.6 2.3 56
2019-11-08 17:00:00 7.6 15 Oeste 42 Noroeste 0 911.7 1.8 49
2019-11-08 16:00:00 9 22 Noroeste 50 Norte 0 910.9 0.6 49
2019-11-08 15:00:00 8 27 Noroeste 52 Norte 0 910.3 0 54
2019-11-08 14:00:00 8.4 26 Noroeste 54 Noroeste 0 909.9 -0.6 55
2019-11-08 13:00:00 8.2 25 Noroeste 42 Norte 0 910.3 0.6 58
2019-11-08 12:00:00 6.9 20 Oeste 45 Noroeste 0 910.3 1.4 67
2019-11-08 11:00:00 5.3 22 Oeste 37 Oeste 0 910.5 2.4 74
2019-11-08 10:00:00 3.5 24 Oeste 41 Oeste 0 909.7 2.1 80
2019-11-08 09:00:00 1.5 14 Oeste 22 Oeste 0 908.9 1.7 87
2019-11-08 08:00:00 1 13 Sudoeste 26 Oeste 0 908.1 1.8 90
2019-11-08 07:00:00 0.8 18 Sudoeste 26 Oeste 0 907.6 1.5 91
2019-11-08 06:00:00 1 21 Oeste 39 Oeste 0 907.2 1.7 91
2019-11-08 05:00:00 0.7 22 Oeste 32 Oeste 0 906.3 0.6 92
2019-11-08 04:00:00 0.7 18 Oeste 30 Oeste 0 906.1 0.9 92
2019-11-08 03:00:00 0.9 16 Oeste 32 Oeste 0 905.5 0.1 91
2019-11-08 02:00:00 0.7 15 Oeste 37 Oeste 0 905.7 0.1 91
2019-11-08 01:00:00 0.5 27 Oeste 39 Oeste 0 905.2 -0.5 91
2019-11-08 00:00:00 0.6 24 Oeste 42 Oeste 0 905.4 0 91
2019-11-07 23:00:00 0.8 20 Oeste 35 Oeste 0 905.6 0 90
2019-11-07 22:00:00 1.1 20 Oeste 33 Oeste 0 905.7 0 87
2019-11-07 21:00:00 1.1 12 Oeste 24 Oeste 0 905.4 -0.1 89
2019-11-07 20:00:00 0.8 11 Sudoeste 37 Oeste 0 905.6 0.4 91
2019-11-07 19:00:00 1.5 21 Oeste 39 Oeste 0 905.7 0.5 87
2019-11-07 18:00:00 2.7 23 Oeste 41 Oeste 0 905.5 -0.1 80
2019-11-07 17:00:00 4.3 28 Oeste 42 Oeste 0 905.2 -0.7 73
2019-11-07 16:00:00 4.5 31 Oeste 48 Oeste 0 905.2 -1.2 73
2019-11-07 15:00:00 5.7 30 Oeste 45 Oeste 0 905.6 -0.8 71
2019-11-07 14:00:00 4.7 25 Oeste 52 Oeste 0 905.9 -0.7 78
2019-11-07 13:00:00 6 32 Oeste 50 Oeste 0 906.4 0 75
2019-11-07 12:00:00 6.2 29 Oeste 46 Oeste 0 906.4 0 73
2019-11-07 11:00:00 5.9 27 Oeste 39 Oeste 0 906.6 0.7 76
2019-11-07 10:00:00 5.3 25 Oeste 33 Oeste 0 906.4 1 75
2019-11-07 09:00:00 3.6 14 Oeste 28 Oeste 0 906.4 0.7 84
2019-11-07 08:00:00 3.9 19 Oeste 32 Oeste 0 905.9 0.3 86
2019-11-07 07:00:00 3.9 18 Oeste 30 Oeste 0 905.4 -0.4 88
2019-11-07 06:00:00 4.4 14 Oeste 22 Oeste 0 905.7 0.2 88
2019-11-07 05:00:00 4.2 11 Oeste 21 Oeste 0 905.6 0.4 88
2019-11-07 04:00:00 5.5 10 Oeste 21 Oeste 0 905.8 0.4 89
2019-11-07 03:00:00 7.1 16 Oeste 32 Oeste 0 905.5 -0.1 89
2019-11-07 02:00:00 7.6 13 Oeste 22 Oeste 0 905.2 -0.8 94
2019-11-07 01:00:00 8.1 13 Sudoeste 24 Sudoeste 0 905.4 -1.1 100
2019-11-07 00:00:00 8.1 18 Sudoeste 28 Sudoeste 0.8 905.6 -1.2 100
2019-11-06 23:00:00 7.9 17 Sudoeste 24 Sudoeste 0.2 906 -1.4 99
2019-11-06 22:00:00 7.7 15 Sudoeste 21 Sudoeste 0 906.5 -1.1 99
2019-11-06 21:00:00 7.8 9 Sudoeste 15 Sudoeste 0 906.8 -0.7 97
2019-11-06 20:00:00 8.1 11 Sudoeste 21 Sudoeste 0 907.4 -0.7 91
2019-11-06 19:00:00 8.4 13 Sudoeste 26 Oeste 0 907.6 -1 86
2019-11-06 18:00:00 8.6 19 Oeste 35 Oeste 0 907.5 -1.5 84
2019-11-06 17:00:00 9.3 24 Oeste 37 Oeste 0 908.1 -1.6 77
2019-11-06 16:00:00 10.3 25 Oeste 37 Sudoeste 0 908.6 -1.8 72
2019-11-06 15:00:00 9.6 22 Oeste 32 Sudoeste 0 909 -2.3 72
2019-11-06 14:00:00 9.4 21 Oeste 35 Sudoeste 0 909.7 -1.6 72
2019-11-06 13:00:00 9.3 22 Oeste 32 Sudoeste 0 910.4 -0.9 75
2019-11-06 12:00:00 8 23 Oeste 30 Oeste 0 911.3 -0.1 80
2019-11-06 11:00:00 7 17 Oeste 28 Oeste 0 911.3 0.3 86
2019-11-06 10:00:00 6.1 21 Oeste 28 Oeste 0 911.3 0.4 90
2019-11-06 09:00:00 5.5 18 Oeste 30 Oeste 0 911.4 0.5 89
2019-11-06 08:00:00 4.5 15 Oeste 22 Oeste 0 911 0.4 87
2019-11-06 07:00:00 4.3 14 Oeste 22 Oeste 0 910.9 0.3 85
2019-11-06 06:00:00 4.2 15 Oeste 24 Oeste 0 910.9 0.3 85
2019-11-06 05:00:00 4.2 15 Oeste 26 Oeste 0 910.6 0 89
2019-11-06 04:00:00 4.4 17 Oeste 26 Oeste 0 910.6 0.1 90
2019-11-06 03:00:00 4.7 17 Oeste 28 Oeste 0 910.6 0.5 89
2019-11-06 02:00:00 4.9 13 Oeste 30 Oeste 0 910.6 0.8 86
2019-11-06 01:00:00 5.2 17 Oeste 32 Oeste 0 910.5 0.9 79
2019-11-06 00:00:00 6.3 21 Oeste 35 Oeste 0 910.1 0.8 72